createdAt,value
2023-03-15T00:00:35.639Z,4.40
2023-03-15T00:03:04.287Z,4.40
2023-03-15T00:05:31.954Z,4.30
2023-03-15T00:07:59.323Z,4.30
2023-03-15T00:10:26.051Z,4.20
2023-03-15T00:12:52.797Z,4.20
2023-03-15T00:15:19.537Z,4.10
2023-03-15T00:17:46.450Z,4.10
2023-03-15T00:20:14.955Z,4.10
2023-03-15T00:22:42.396Z,4.10
2023-03-15T00:25:09.671Z,4.10
2023-03-15T00:27:36.419Z,4.00
2023-03-15T00:30:04.018Z,4.00
2023-03-15T00:32:32.336Z,3.90
2023-03-15T00:34:59.102Z,3.80
2023-03-15T00:37:25.809Z,3.80
2023-03-15T00:39:55.588Z,3.80
2023-03-15T00:42:27.353Z,3.70
2023-03-15T00:44:55.704Z,3.70
2023-03-15T00:47:23.179Z,3.60
2023-03-15T00:49:50.779Z,3.60
2023-03-15T00:52:19.058Z,3.40
2023-03-15T00:54:53.088Z,3.40
2023-03-15T00:57:20.353Z,3.40
2023-03-15T00:59:47.146Z,3.40
2023-03-15T01:02:14.421Z,3.40
2023-03-15T01:04:41.137Z,3.30
2023-03-15T01:07:08.038Z,3.30
2023-03-15T01:09:35.208Z,3.40
2023-03-15T01:12:01.987Z,3.30
2023-03-15T01:14:31.369Z,3.30
2023-03-15T01:16:58.526Z,3.30
2023-03-15T01:19:25.246Z,3.30
2023-03-15T01:21:53.240Z,3.20
2023-03-15T01:24:20.224Z,3.20
2023-03-15T01:26:48.774Z,3.20
2023-03-15T01:29:17.827Z,3.30
2023-03-15T01:31:44.648Z,3.20
2023-03-15T01:34:11.459Z,3.10
2023-03-15T01:36:38.268Z,3.00
2023-03-15T01:39:05.151Z,2.90
2023-03-15T01:41:43.939Z,3.00
2023-03-15T01:44:15.893Z,3.00
2023-03-15T01:46:43.998Z,3.00
2023-03-15T01:49:27.233Z,3.00
2023-03-15T01:52:06.693Z,3.00
2023-03-15T01:54:54.587Z,3.00
2023-03-15T01:57:41.761Z,2.90
2023-03-15T02:00:16.468Z,2.80
2023-03-15T02:02:58.110Z,2.80
2023-03-15T02:05:33.938Z,2.80
2023-03-15T02:08:06.852Z,2.80
2023-03-15T02:10:40.595Z,2.90
2023-03-15T02:13:08.333Z,2.90
2023-03-15T02:15:35.153Z,2.80
2023-03-15T02:18:05.216Z,2.80
2023-03-15T02:20:42.577Z,2.80
2023-03-15T02:23:16.978Z,3.00
2023-03-15T02:26:07.836Z,2.80
2023-03-15T02:28:35.341Z,2.80
2023-03-15T02:31:02.355Z,2.80
2023-03-15T02:33:38.770Z,2.80
2023-03-15T02:36:29.751Z,2.80
2023-03-15T02:38:57.009Z,2.80
2023-03-15T02:41:53.648Z,2.70
2023-03-15T02:44:31.997Z,2.70
2023-03-15T02:47:04.734Z,2.70
2023-03-15T02:49:37.440Z,2.70
2023-03-15T02:52:05.302Z,2.70
2023-03-15T02:54:36.014Z,2.80
2023-03-15T02:57:03.563Z,2.80
2023-03-15T02:59:31.312Z,2.80
2023-03-15T03:01:58.177Z,2.80
2023-03-15T03:04:24.888Z,2.80
2023-03-15T03:06:51.606Z,2.80
2023-03-15T03:09:23.809Z,2.70
2023-03-15T03:11:50.914Z,2.70
2023-03-15T03:14:18.207Z,2.80
2023-03-15T03:16:45.318Z,2.80
2023-03-15T03:19:12.625Z,2.70
2023-03-15T03:21:43.314Z,2.70
2023-03-15T03:24:16.029Z,2.70
2023-03-15T03:26:46.240Z,2.60
2023-03-15T03:29:17.747Z,2.70
2023-03-15T03:31:47.342Z,2.60
2023-03-15T03:34:15.660Z,2.60
2023-03-15T03:36:45.811Z,2.70
2023-03-15T03:39:17.132Z,2.60
2023-03-15T03:41:45.346Z,2.70
2023-03-15T03:44:13.008Z,2.70
2023-03-15T03:46:41.389Z,2.60
2023-03-15T03:49:08.154Z,2.70
2023-03-15T03:51:35.183Z,2.70
2023-03-15T03:54:02.617Z,2.70
2023-03-15T03:56:29.828Z,2.70
2023-03-15T03:58:56.746Z,2.70
2023-03-15T04:01:30.782Z,2.70
2023-03-15T04:03:57.862Z,2.70
2023-03-15T04:06:24.937Z,2.60
2023-03-15T04:08:52.702Z,2.60
2023-03-15T04:11:26.855Z,2.60
2023-03-15T04:13:58.527Z,2.50
2023-03-15T04:16:26.181Z,2.50
2023-03-15T04:19:13.033Z,2.50
2023-03-15T04:21:47.438Z,2.60
2023-03-15T04:24:35.159Z,2.60
2023-03-15T04:27:08.463Z,2.60
2023-03-15T04:29:44.850Z,2.50
2023-03-15T04:32:36.273Z,2.50
2023-03-15T04:35:22.612Z,2.50
2023-03-15T04:38:26.545Z,2.50
2023-03-15T04:41:10.756Z,2.50
2023-03-15T04:44:06.686Z,2.50
2023-03-15T04:46:47.524Z,2.50
2023-03-15T04:49:43.519Z,2.50
2023-03-15T04:52:30.039Z,2.40
2023-03-15T04:54:59.788Z,2.40
2023-03-15T04:57:48.793Z,2.50
2023-03-15T05:00:32.569Z,2.40
2023-03-15T05:03:08.794Z,2.40
2023-03-15T05:05:52.529Z,2.40
2023-03-15T05:08:31.910Z,2.40
2023-03-15T05:11:17.446Z,2.30
2023-03-15T05:14:01.683Z,2.30
2023-03-15T05:16:43.175Z,2.30
2023-03-15T05:19:21.758Z,2.40
2023-03-15T05:22:07.233Z,2.30
2023-03-15T05:24:48.297Z,2.20
2023-03-15T05:27:34.474Z,2.30
2023-03-15T05:30:16.318Z,2.20
2023-03-15T05:33:05.133Z,2.20
2023-03-15T05:35:47.802Z,2.30
2023-03-15T05:38:37.371Z,2.30
2023-03-15T05:41:24.163Z,2.30
2023-03-15T05:44:10.661Z,2.20
2023-03-15T05:46:55.571Z,2.20
2023-03-15T05:49:40.946Z,2.10
2023-03-15T05:52:31.357Z,2.10
2023-03-15T05:55:16.954Z,2.20
2023-03-15T05:58:02.495Z,2.20
2023-03-15T06:00:43.660Z,2.20
2023-03-15T06:03:22.682Z,2.10
2023-03-15T06:05:59.227Z,2.10
2023-03-15T06:08:34.540Z,2.00
2023-03-15T06:11:01.419Z,2.10
2023-03-15T06:13:28.413Z,2.10
2023-03-15T06:15:55.251Z,2.10
2023-03-15T06:18:22.829Z,2.00
2023-03-15T06:20:50.853Z,2.10
2023-03-15T06:23:19.181Z,2.00
2023-03-15T06:25:47.262Z,2.00
2023-03-15T06:28:15.036Z,2.00
2023-03-15T06:30:51.196Z,1.90
2023-03-15T06:33:21.550Z,1.90
2023-03-15T06:35:48.446Z,1.90
2023-03-15T06:38:15.309Z,1.80
2023-03-15T06:40:42.296Z,1.80
2023-03-15T06:43:09.060Z,1.70
2023-03-15T06:45:36.298Z,1.80
2023-03-15T06:48:04.514Z,1.80
2023-03-15T06:50:44.143Z,1.90
2023-03-15T06:53:13.271Z,1.90
2023-03-15T06:55:40.094Z,1.90
2023-03-15T06:58:06.849Z,2.00
2023-03-15T07:00:33.581Z,2.10
2023-03-15T07:03:00.581Z,2.10
2023-03-15T07:05:27.572Z,2.00
2023-03-15T07:07:54.368Z,2.30
2023-03-15T07:10:21.466Z,2.20
2023-03-15T07:12:48.215Z,2.30
2023-03-15T07:15:17.061Z,2.20
2023-03-15T07:17:44.092Z,2.10
2023-03-15T07:20:11.554Z,2.00
2023-03-15T07:22:38.674Z,1.90
2023-03-15T07:25:07.420Z,2.20
2023-03-15T07:27:34.282Z,2.20
2023-03-15T07:30:01.236Z,2.30
2023-03-15T07:32:28.207Z,2.30
2023-03-15T07:34:58.283Z,2.50
2023-03-15T07:37:25.094Z,2.50
2023-03-15T07:39:51.841Z,2.50
2023-03-15T07:42:18.711Z,2.60
2023-03-15T07:44:50.676Z,2.60
2023-03-15T07:47:17.495Z,2.80
2023-03-15T07:49:44.316Z,2.80
2023-03-15T07:52:11.304Z,3.00
2023-03-15T07:54:38.037Z,2.90
2023-03-15T07:57:05.124Z,2.80
2023-03-15T07:59:31.865Z,2.80
2023-03-15T08:02:00.831Z,2.80
2023-03-15T08:04:29.045Z,3.00
2023-03-15T08:06:56.240Z,3.00
2023-03-15T08:09:23.316Z,3.10
2023-03-15T08:11:50.100Z,3.10
2023-03-15T08:14:16.874Z,3.20
2023-03-15T08:16:43.658Z,3.10
2023-03-15T08:19:10.460Z,3.20
2023-03-15T08:21:37.446Z,3.30
2023-03-15T08:24:04.365Z,3.20
2023-03-15T08:26:31.087Z,3.10
2023-03-15T08:28:57.846Z,3.20
2023-03-15T08:31:24.711Z,3.20
2023-03-15T08:33:51.416Z,3.30
2023-03-15T08:36:18.266Z,3.30
2023-03-15T08:38:45.035Z,3.20
2023-03-15T08:41:11.810Z,3.10
2023-03-15T08:43:38.577Z,3.10
2023-03-15T08:46:05.635Z,3.20
2023-03-15T08:48:32.544Z,3.30
2023-03-15T08:51:04.251Z,3.30
2023-03-15T08:53:31.526Z,3.30
2023-03-15T08:55:58.859Z,3.30
2023-03-15T08:58:25.595Z,3.20
2023-03-15T09:00:52.519Z,3.20
2023-03-15T09:03:20.598Z,3.30
2023-03-15T09:05:47.633Z,3.30
2023-03-15T09:08:14.582Z,3.30
2023-03-15T09:10:41.297Z,3.30
2023-03-15T09:13:08.010Z,3.40
2023-03-15T09:15:34.979Z,3.30
2023-03-15T09:18:01.734Z,3.40
2023-03-15T09:20:28.597Z,3.40
2023-03-15T09:22:57.721Z,3.40
2023-03-15T09:25:25.850Z,3.40
2023-03-15T09:27:53.345Z,3.40
2023-03-15T09:30:20.366Z,3.40
2023-03-15T09:32:51.363Z,3.50
2023-03-15T09:35:20.137Z,3.50
2023-03-15T09:37:48.896Z,3.50
2023-03-15T09:40:31.848Z,3.40
2023-03-15T09:43:34.284Z,3.50
2023-03-15T09:46:14.835Z,3.50
2023-03-15T09:48:56.173Z,3.60
2023-03-15T09:51:35.376Z,3.60
2023-03-15T09:54:27.317Z,3.70
2023-03-15T09:57:02.344Z,3.70
2023-03-15T09:59:35.962Z,3.70
2023-03-15T10:02:15.158Z,3.70
2023-03-15T10:04:44.635Z,3.70
2023-03-15T10:07:14.497Z,3.60
2023-03-15T10:09:41.410Z,3.50
2023-03-15T10:12:41.375Z,3.50
2023-03-15T10:15:40.833Z,3.60
2023-03-15T10:18:16.486Z,3.70
2023-03-15T10:20:49.782Z,3.70
2023-03-15T10:23:26.625Z,3.70
2023-03-15T10:25:54.256Z,3.60
2023-03-15T10:28:30.606Z,3.80
2023-03-15T10:31:02.070Z,3.70
2023-03-15T10:33:32.544Z,3.70
2023-03-15T10:36:10.596Z,3.80
2023-03-15T10:38:39.076Z,3.80
2023-03-15T10:41:06.736Z,3.80
2023-03-15T10:43:37.030Z,3.80
2023-03-15T10:46:12.560Z,3.80
2023-03-15T10:48:51.486Z,3.80
2023-03-15T10:51:31.485Z,3.80
2023-03-15T10:54:13.350Z,3.80
2023-03-15T10:56:58.204Z,3.80
2023-03-15T10:59:27.445Z,3.80
2023-03-15T11:02:15.397Z,3.80
2023-03-15T11:04:43.758Z,3.80
2023-03-15T11:07:13.517Z,3.80
2023-03-15T11:09:42.717Z,3.80
2023-03-15T11:12:34.958Z,3.90
2023-03-15T11:15:13.992Z,3.80
2023-03-15T11:17:49.029Z,3.80
2023-03-15T11:20:30.499Z,3.70
2023-03-15T11:22:59.544Z,3.70
2023-03-15T11:25:31.730Z,3.80
2023-03-15T11:27:59.939Z,3.80
2023-03-15T11:30:29.862Z,3.80
2023-03-15T11:33:08.189Z,3.90
2023-03-15T11:35:49.545Z,4.00
2023-03-15T11:38:33.287Z,3.90
2023-03-15T11:41:02.447Z,3.90
2023-03-15T11:43:49.506Z,4.00
2023-03-15T11:46:34.547Z,3.90
2023-03-15T11:49:33.604Z,4.00
2023-03-15T11:52:00.952Z,4.00
2023-03-15T11:54:30.277Z,4.10
2023-03-15T11:57:27.566Z,4.10
2023-03-15T11:59:55.301Z,4.10
2023-03-15T12:02:26.354Z,4.10
2023-03-15T12:04:54.448Z,4.10
2023-03-15T12:07:23.870Z,4.10
2023-03-15T12:10:14.358Z,4.10
2023-03-15T12:12:46.683Z,4.10
2023-03-15T12:15:19.507Z,4.10
2023-03-15T12:17:57.876Z,4.00
2023-03-15T12:20:42.940Z,4.10
2023-03-15T12:23:18.893Z,4.10
2023-03-15T12:26:03.855Z,3.90
2023-03-15T12:28:38.923Z,3.90
2023-03-15T12:31:09.021Z,3.90
2023-03-15T12:33:50.616Z,3.90
2023-03-15T12:36:29.138Z,3.90
2023-03-15T12:39:02.442Z,3.90
2023-03-15T12:41:41.800Z,3.90
2023-03-15T12:44:38.396Z,3.90
2023-03-15T12:47:12.414Z,3.90
2023-03-15T12:49:44.727Z,3.80
2023-03-15T12:52:11.404Z,3.80
2023-03-15T12:54:49.361Z,3.80
2023-03-15T12:57:35.837Z,3.80
2023-03-15T13:00:23.102Z,3.80
2023-03-15T13:03:05.645Z,3.80
2023-03-15T13:05:40.326Z,3.70
2023-03-15T13:08:31.051Z,3.60
2023-03-15T13:11:35.600Z,3.50
2023-03-15T13:14:17.189Z,3.40
2023-03-15T13:16:53.223Z,3.40
2023-03-15T13:19:25.865Z,3.40
2023-03-15T13:22:19.836Z,3.30
2023-03-15T13:25:09.888Z,3.40
2023-03-15T13:27:56.640Z,3.40
2023-03-15T13:31:03.092Z,3.40
2023-03-15T13:33:34.012Z,3.50
2023-03-15T13:36:04.329Z,3.30
2023-03-15T13:38:35.500Z,3.40
2023-03-15T13:41:04.496Z,3.50
2023-03-15T13:43:34.280Z,3.40
2023-03-15T13:46:01.783Z,3.40
2023-03-15T13:48:34.689Z,3.40
2023-03-15T13:51:07.736Z,3.60
2023-03-15T13:53:49.099Z,3.50
2023-03-15T13:56:19.842Z,3.50
2023-03-15T13:58:48.555Z,3.50
2023-03-15T14:01:17.089Z,3.50
2023-03-15T14:03:48.868Z,3.50
2023-03-15T14:06:23.755Z,3.50
2023-03-15T14:08:54.725Z,3.50
2023-03-15T14:11:24.473Z,3.50
2023-03-15T14:13:59.644Z,3.50
2023-03-15T14:16:34.477Z,3.60
2023-03-15T14:19:22.725Z,3.50
2023-03-15T14:21:56.018Z,3.60
2023-03-15T14:24:35.764Z,3.60
2023-03-15T14:27:14.582Z,3.50
2023-03-15T14:29:47.222Z,3.60
2023-03-15T14:32:51.797Z,3.60
2023-03-15T14:35:36.926Z,3.60
2023-03-15T14:38:24.013Z,3.60
2023-03-15T14:40:52.557Z,3.60
2023-03-15T14:43:19.590Z,3.80
2023-03-15T14:45:48.044Z,3.70
2023-03-15T14:48:29.397Z,3.60
2023-03-15T14:50:56.570Z,3.70
2023-03-15T14:53:26.495Z,3.70
2023-03-15T14:55:53.235Z,3.80
2023-03-15T14:58:22.025Z,3.80
2023-03-15T15:00:51.634Z,3.70
2023-03-15T15:03:32.773Z,3.60
2023-03-15T15:06:01.565Z,3.60
2023-03-15T15:08:28.979Z,3.60
2023-03-15T15:10:57.025Z,3.70
2023-03-15T15:13:28.402Z,3.70
2023-03-15T15:15:57.004Z,3.80
2023-03-15T15:18:25.500Z,3.80
2023-03-15T15:20:55.615Z,3.80
2023-03-15T15:23:31.905Z,3.70
2023-03-15T15:26:01.859Z,3.80
2023-03-15T15:28:36.049Z,3.70
2023-03-15T15:31:07.665Z,3.70
2023-03-15T15:33:34.656Z,3.80
2023-03-15T15:36:02.123Z,3.70
2023-03-15T15:38:38.594Z,3.80
2023-03-15T15:41:15.648Z,3.80
2023-03-15T15:43:43.864Z,3.80
2023-03-15T15:46:12.415Z,3.80
2023-03-15T15:48:40.577Z,3.80
2023-03-15T15:51:28.372Z,3.80
2023-03-15T15:53:58.772Z,3.70
2023-03-15T15:56:40.056Z,3.70
2023-03-15T15:59:11.884Z,3.60
2023-03-15T16:01:49.292Z,3.40
2023-03-15T16:04:23.890Z,3.40
2023-03-15T16:07:02.668Z,3.40
2023-03-15T16:09:31.441Z,3.50
2023-03-15T16:11:58.487Z,3.50
2023-03-15T16:14:25.362Z,3.40
2023-03-15T16:16:52.176Z,3.40
2023-03-15T16:19:19.077Z,3.30
2023-03-15T16:21:49.034Z,3.30
2023-03-15T16:24:15.711Z,3.40
2023-03-15T16:26:45.256Z,3.40
2023-03-15T16:29:14.989Z,3.40
2023-03-15T16:31:41.984Z,3.40
2023-03-15T16:34:11.841Z,3.40
2023-03-15T16:36:43.482Z,3.50
2023-03-15T16:39:12.737Z,3.40
2023-03-15T16:41:40.513Z,3.30
2023-03-15T16:44:19.197Z,3.30
2023-03-15T16:46:46.650Z,3.40
2023-03-15T16:49:15.428Z,3.40
2023-03-15T16:51:47.693Z,3.30
2023-03-15T16:54:22.005Z,3.30
2023-03-15T16:56:54.836Z,3.30
2023-03-15T16:59:21.877Z,3.30
2023-03-15T17:01:51.438Z,3.30
2023-03-15T17:04:18.319Z,3.30
2023-03-15T17:06:46.145Z,3.30
2023-03-15T17:09:16.491Z,3.20
2023-03-15T17:11:46.420Z,3.30
2023-03-15T17:14:20.068Z,3.40
2023-03-15T17:16:46.789Z,3.30
2023-03-15T17:19:15.222Z,3.20
2023-03-15T17:21:44.111Z,3.20
2023-03-15T17:24:12.204Z,3.20
2023-03-15T17:26:41.177Z,3.20
2023-03-15T17:29:08.462Z,3.10
2023-03-15T17:31:36.029Z,3.20
2023-03-15T17:34:03.204Z,3.10
2023-03-15T17:36:35.112Z,3.10
2023-03-15T17:39:02.749Z,3.10
2023-03-15T17:41:32.131Z,3.10
2023-03-15T17:43:59.049Z,3.10
2023-03-15T17:46:31.185Z,3.10
2023-03-15T17:49:02.985Z,3.10
2023-03-15T17:51:35.308Z,3.10
2023-03-15T17:54:02.441Z,3.00
2023-03-15T17:56:29.686Z,3.00
2023-03-15T17:58:56.633Z,2.90
2023-03-15T18:01:27.479Z,3.00
2023-03-15T18:03:55.090Z,2.90
2023-03-15T18:06:22.972Z,2.90
2023-03-15T18:08:50.208Z,2.90
2023-03-15T18:11:35.900Z,2.90
2023-03-15T18:14:04.651Z,2.90
2023-03-15T18:16:32.190Z,2.90
2023-03-15T18:18:59.263Z,2.90
2023-03-15T18:21:27.477Z,2.90
2023-03-15T18:23:54.748Z,3.00
2023-03-15T18:26:21.939Z,2.90
2023-03-15T18:28:49.009Z,2.90
2023-03-15T18:31:22.580Z,2.90
2023-03-15T18:33:50.268Z,2.90
2023-03-15T18:36:18.043Z,3.00
2023-03-15T18:38:45.541Z,2.90
2023-03-15T18:41:24.780Z,3.00
2023-03-15T18:43:52.167Z,2.90
2023-03-15T18:46:21.350Z,2.90
2023-03-15T18:48:49.793Z,2.90
2023-03-15T18:51:17.365Z,2.80
2023-03-15T18:53:45.385Z,2.80
2023-03-15T18:56:23.881Z,2.80
2023-03-15T18:58:51.888Z,2.80
2023-03-15T19:01:22.351Z,2.70
2023-03-15T19:03:49.889Z,2.70
2023-03-15T19:06:16.855Z,2.70
2023-03-15T19:08:43.782Z,2.70
2023-03-15T19:11:11.331Z,2.60
2023-03-15T19:13:38.509Z,2.70
2023-03-15T19:16:05.666Z,2.60
2023-03-15T19:18:32.847Z,2.60
2023-03-15T19:20:59.973Z,2.70
2023-03-15T19:23:27.351Z,2.70
2023-03-15T19:25:54.727Z,2.70
2023-03-15T19:28:21.469Z,2.70
2023-03-15T19:30:49.316Z,2.70
2023-03-15T19:33:16.304Z,2.60
2023-03-15T19:35:43.109Z,2.60
2023-03-15T19:38:09.907Z,2.60
2023-03-15T19:40:37.397Z,2.60
2023-03-15T19:43:04.387Z,2.60
2023-03-15T19:45:31.101Z,2.50
2023-03-15T19:47:57.872Z,2.50
2023-03-15T19:50:24.620Z,2.50
2023-03-15T19:52:51.440Z,2.50
2023-03-15T19:55:20.170Z,2.50
2023-03-15T19:57:47.512Z,2.50
2023-03-15T20:00:16.096Z,2.50
2023-03-15T20:02:43.759Z,2.50
2023-03-15T20:05:12.258Z,2.40
2023-03-15T20:07:39.542Z,2.40
2023-03-15T20:10:08.530Z,2.40
2023-03-15T20:12:36.263Z,2.40
2023-03-15T20:15:04.598Z,2.40
2023-03-15T20:17:31.488Z,2.40
2023-03-15T20:19:58.310Z,2.30
2023-03-15T20:22:25.144Z,2.30
2023-03-15T20:24:51.947Z,2.30
2023-03-15T20:27:18.901Z,2.30
2023-03-15T20:29:45.692Z,2.30
2023-03-15T20:32:12.549Z,2.30
2023-03-15T20:34:41.449Z,2.30
2023-03-15T20:37:08.236Z,2.30
2023-03-15T20:39:35.019Z,2.30
2023-03-15T20:42:01.744Z,2.30
2023-03-15T20:44:28.531Z,2.30
2023-03-15T20:46:58.710Z,2.30
2023-03-15T20:49:26.986Z,2.20
2023-03-15T20:51:55.618Z,2.20
2023-03-15T20:54:22.338Z,2.30
2023-03-15T20:56:49.117Z,2.30
2023-03-15T20:59:15.915Z,2.20
2023-03-15T21:01:42.714Z,2.20
2023-03-15T21:04:11.210Z,2.20
2023-03-15T21:06:37.927Z,2.20
2023-03-15T21:09:05.195Z,2.20
2023-03-15T21:11:32.729Z,2.10
2023-03-15T21:13:59.458Z,2.10
2023-03-15T21:16:26.536Z,2.20
2023-03-15T21:18:54.770Z,2.20
2023-03-15T21:21:21.716Z,2.20
2023-03-15T21:23:48.490Z,2.10
2023-03-15T21:26:15.179Z,2.10
2023-03-15T21:28:42.059Z,2.10
2023-03-15T21:31:09.152Z,2.10
2023-03-15T21:33:36.163Z,2.10
2023-03-15T21:36:03.019Z,2.00
2023-03-15T21:38:31.731Z,1.90
2023-03-15T21:40:59.690Z,1.90
2023-03-15T21:43:31.859Z,1.90
2023-03-15T21:46:07.753Z,1.90
2023-03-15T21:48:34.962Z,1.80
2023-03-15T21:51:04.231Z,1.90
2023-03-15T21:53:33.969Z,1.80
2023-03-15T21:56:02.216Z,1.80
2023-03-15T21:58:29.426Z,1.80
2023-03-15T22:01:05.128Z,1.70
2023-03-15T22:03:33.359Z,1.70
2023-03-15T22:06:00.280Z,1.70
2023-03-15T22:08:27.378Z,1.70
2023-03-15T22:10:55.101Z,1.70
2023-03-15T22:13:22.230Z,1.70
2023-03-15T22:15:49.120Z,1.70
2023-03-15T22:18:16.140Z,1.70
2023-03-15T22:20:42.996Z,1.70
2023-03-15T22:23:09.821Z,1.70
2023-03-15T22:25:40.013Z,1.60
2023-03-15T22:28:07.261Z,1.60
2023-03-15T22:30:34.303Z,1.60
2023-03-15T22:33:01.434Z,1.50
2023-03-15T22:35:28.386Z,1.50
2023-03-15T22:37:56.875Z,1.50
2023-03-15T22:40:26.119Z,1.50
2023-03-15T22:42:53.086Z,1.50
2023-03-15T22:45:20.756Z,1.40
2023-03-15T22:47:49.073Z,1.40
2023-03-15T22:50:16.057Z,1.40
2023-03-15T22:52:43.361Z,1.40
2023-03-15T22:55:11.072Z,1.40
2023-03-15T22:57:38.010Z,1.40
2023-03-15T23:00:13.744Z,1.30
2023-03-15T23:02:41.846Z,1.30
2023-03-15T23:05:09.818Z,1.30
2023-03-15T23:07:36.681Z,1.30
2023-03-15T23:10:06.081Z,1.30
2023-03-15T23:12:36.356Z,1.30
2023-03-15T23:15:04.651Z,1.20
2023-03-15T23:17:32.008Z,1.20
2023-03-15T23:19:58.849Z,1.20
2023-03-15T23:22:25.656Z,1.20
2023-03-15T23:24:52.528Z,1.10
2023-03-15T23:27:19.297Z,1.10
2023-03-15T23:29:54.454Z,1.10
2023-03-15T23:32:22.932Z,1.10
2023-03-15T23:34:49.939Z,1.00
2023-03-15T23:37:17.070Z,1.00
2023-03-15T23:39:43.876Z,1.00
2023-03-15T23:42:11.314Z,1.00
2023-03-15T23:44:38.638Z,0.90
2023-03-15T23:47:06.476Z,0.90
2023-03-15T23:49:33.822Z,1.00
2023-03-15T23:52:05.827Z,0.90
2023-03-15T23:54:39.407Z,1.00
2023-03-15T23:57:07.691Z,0.90
2023-03-15T23:59:36.187Z,0.90
